createdAt,value
2019-04-20T00:02:11.913Z,56.42
2019-04-20T00:05:09.694Z,56.65
2019-04-20T00:08:21.005Z,57.09
2019-04-20T00:11:27.569Z,57.26
2019-04-20T00:14:29.571Z,56.79
2019-04-20T00:17:30.649Z,56.51
2019-04-20T00:20:37.173Z,56.44
2019-04-20T00:23:46.800Z,56.18
2019-04-20T00:27:14.618Z,56.87
2019-04-20T00:30:06.720Z,56.96
2019-04-20T00:33:09.664Z,57.16
2019-04-20T00:36:07.245Z,56.51
2019-04-20T00:39:14.995Z,56.81
2019-04-20T00:42:18.537Z,57.81
2019-04-20T00:45:28.335Z,59.33
2019-04-20T00:48:40.341Z,60.18
2019-04-20T00:51:53.829Z,59.50
2019-04-20T00:54:41.238Z,60.04
2019-04-20T00:57:53.024Z,59.80
2019-04-20T01:01:20.605Z,60.79
2019-04-20T01:04:15.296Z,61.28
2019-04-20T01:07:23.277Z,62.36
2019-04-20T01:10:17.309Z,62.11
2019-04-20T01:13:23.901Z,60.51
2019-04-20T01:16:36.544Z,62.29
2019-04-20T01:19:32.446Z,61.85
2019-04-20T01:22:45.474Z,62.21
2019-04-20T01:25:44.293Z,62.81
2019-04-20T01:29:03.866Z,62.63
2019-04-20T01:32:06.128Z,62.29
2019-04-20T01:35:14.061Z,63.15
2019-04-20T01:38:20.942Z,63.03
2019-04-20T01:41:09.859Z,64.05
2019-04-20T01:44:18.949Z,63.50
2019-04-20T01:47:22.701Z,63.94
2019-04-20T01:54:48.591Z,64.50
2019-04-20T01:57:56.214Z,65.28
2019-04-20T02:01:13.587Z,65.55
2019-04-20T02:04:20.521Z,65.35
2019-04-20T02:07:28.448Z,65.88
2019-04-20T02:10:37.042Z,65.17
2019-04-20T02:13:43.676Z,64.91
2019-04-20T02:16:44.045Z,64.79
2019-04-20T02:20:05.491Z,63.78
2019-04-20T02:23:04.126Z,63.61
2019-04-20T02:25:56.597Z,64.07
2019-04-20T02:29:24.578Z,63.13
2019-04-20T02:42:34.033Z,63.11
2019-04-20T02:45:42.309Z,62.55
2019-04-20T02:48:50.271Z,62.99
2019-04-20T02:52:02.537Z,63.94
2019-04-20T02:55:05.903Z,64.19
2019-04-20T03:00:58.324Z,64.72
2019-04-20T03:03:48.942Z,65.26
2019-04-20T03:07:03.861Z,65.53
2019-04-20T03:10:12.462Z,66.13
2019-04-20T03:13:18.329Z,65.61
2019-04-20T03:16:27.809Z,66.18
2019-04-20T03:19:23.478Z,64.85
2019-04-20T03:23:07.338Z,64.55
2019-04-20T03:25:55.406Z,65.16
2019-04-20T03:29:07.824Z,64.53
2019-04-20T03:32:57.643Z,65.20
2019-04-20T03:35:28.676Z,64.98
2019-04-20T03:38:26.258Z,66.00
2019-04-20T03:41:24.427Z,66.23
2019-04-20T03:44:25.630Z,65.84
2019-04-20T03:47:35.854Z,65.83
2019-04-20T03:50:54.684Z,66.26
2019-04-20T03:54:17.010Z,66.86
2019-04-20T03:57:35.748Z,66.92
2019-04-20T04:00:45.785Z,66.23
2019-04-20T04:03:58.796Z,66.23
2019-04-20T04:06:50.958Z,67.16
2019-04-20T04:10:08.546Z,66.78
2019-04-20T04:13:12.286Z,67.50
2019-04-20T04:16:18.931Z,67.63
2019-04-20T04:19:28.424Z,67.08
2019-04-20T04:22:43.706Z,67.91
2019-04-20T04:25:53.198Z,68.03
2019-04-20T04:28:53.208Z,67.98
2019-04-20T04:32:12.046Z,67.82
2019-04-20T04:35:05.202Z,67.57
2019-04-20T04:38:15.252Z,68.08
2019-04-20T04:44:19.348Z,67.56
2019-04-20T04:47:13.367Z,68.31
2019-04-20T04:50:23.214Z,67.48
2019-04-20T04:53:37.431Z,67.54
2019-04-20T04:56:30.356Z,67.48
2019-04-20T04:59:34.488Z,67.20
2019-04-20T05:02:45.287Z,66.87
2019-04-20T05:06:08.896Z,66.84
2019-04-20T05:08:58.496Z,67.87
2019-04-20T05:12:05.430Z,66.82
2019-04-20T05:15:13.103Z,67.92
2019-04-20T05:18:34.665Z,65.95
2019-04-20T05:21:58.761Z,64.26
2019-04-20T05:25:09.167Z,64.39
2019-04-20T05:28:11.874Z,64.32
2019-04-20T05:31:03.582Z,62.15
2019-04-20T05:34:29.529Z,62.55
2019-04-20T05:37:34.655Z,61.42
2019-04-20T05:40:42.676Z,61.09
2019-04-20T05:43:57.876Z,59.45
2019-04-20T05:47:07.842Z,58.66
2019-04-20T05:50:00.987Z,58.97
2019-04-20T05:53:14.411Z,57.72
2019-04-20T05:56:16.985Z,59.65
2019-04-20T05:59:23.486Z,57.33
2019-04-20T06:02:32.123Z,58.03
2019-04-20T06:05:45.907Z,56.96
2019-04-20T06:08:48.025Z,55.20
2019-04-20T06:12:04.881Z,54.76
2019-04-20T06:15:04.511Z,54.29
2019-04-20T06:18:18.977Z,54.26
2019-04-20T06:21:34.687Z,52.75
2019-04-20T06:24:44.900Z,52.33
2019-04-20T06:27:49.203Z,51.52
2019-04-20T06:30:43.200Z,50.54
2019-04-20T06:37:29.292Z,49.32
2019-04-20T06:40:50.150Z,50.11
2019-04-20T06:43:40.999Z,47.73
2019-04-20T06:46:48.658Z,45.92
2019-04-20T06:49:38.437Z,47.32
2019-04-20T06:53:31.055Z,47.61
2019-04-20T06:56:29.130Z,47.12
2019-04-20T06:59:39.290Z,46.56
2019-04-20T07:02:41.787Z,44.96
2019-04-20T07:05:49.062Z,44.53
2019-04-20T07:08:57.307Z,43.82
2019-04-20T07:11:53.020Z,45.02
2019-04-20T07:14:49.637Z,45.00
2019-04-20T07:18:08.257Z,42.81
2019-04-20T07:21:23.422Z,43.37
2019-04-20T07:24:35.049Z,41.88
2019-04-20T07:27:33.626Z,41.41
2019-04-20T07:30:40.342Z,40.06
2019-04-20T07:33:46.354Z,41.07
2019-04-20T07:36:57.406Z,44.71
2019-04-20T07:39:53.739Z,45.07
2019-04-20T07:42:58.946Z,40.49
2019-04-20T07:46:10.275Z,42.39
2019-04-20T07:49:12.864Z,39.90
2019-04-20T07:51:55.558Z,43.02
2019-04-20T07:55:32.991Z,40.05
2019-04-20T07:58:18.964Z,39.53
2019-04-20T08:01:45.277Z,38.72
2019-04-20T08:04:49.978Z,38.88
2019-04-20T08:07:46.395Z,38.83
2019-04-20T08:11:00.760Z,37.11
2019-04-20T08:14:14.528Z,39.32
2019-04-20T08:17:22.925Z,35.69
2019-04-20T08:20:17.329Z,38.65
2019-04-20T08:23:38.838Z,34.30
2019-04-20T08:26:18.213Z,36.66
2019-04-20T08:29:41.736Z,37.24
2019-04-20T08:33:12.250Z,36.73
2019-04-20T08:36:22.837Z,38.36
2019-04-20T08:39:41.168Z,34.26
2019-04-20T08:42:39.951Z,34.37
2019-04-20T08:45:41.870Z,36.17
2019-04-20T08:48:46.820Z,36.19
2019-04-20T08:52:05.959Z,36.15
2019-04-20T08:55:01.289Z,34.09
2019-04-20T08:57:44.862Z,35.30
2019-04-20T09:00:55.425Z,34.27
2019-04-20T09:04:05.111Z,33.61
2019-04-20T09:07:10.142Z,34.67
2019-04-20T09:10:28.178Z,33.27
2019-04-20T09:13:23.061Z,33.61
2019-04-20T09:16:19.956Z,32.97
2019-04-20T09:19:36.767Z,32.40
2019-04-20T09:22:46.959Z,33.12
2019-04-20T09:29:07.274Z,30.51
2019-04-20T09:32:34.342Z,31.51
2019-04-20T09:35:39.145Z,31.68
2019-04-20T09:38:58.338Z,31.43
2019-04-20T09:42:10.781Z,33.11
2019-04-20T09:45:23.354Z,28.36
2019-04-20T09:48:31.792Z,27.77
2019-04-20T09:51:43.692Z,30.35
2019-04-20T09:54:51.884Z,27.73
2019-04-20T09:57:59.106Z,30.43
2019-04-20T10:01:03.290Z,26.80
2019-04-20T10:03:51.050Z,27.33
2019-04-20T10:06:55.324Z,27.33
2019-04-20T10:09:59.930Z,26.04
2019-04-20T10:13:05.695Z,27.48
2019-04-20T10:16:09.383Z,23.92
2019-04-20T10:19:13.730Z,27.79
2019-04-20T10:22:18.449Z,28.29
2019-04-20T10:25:22.598Z,22.81
2019-04-20T10:28:27.609Z,20.35
2019-04-20T10:31:35.715Z,22.24
2019-04-20T10:34:37.106Z,21.86
2019-04-20T10:37:45.641Z,19.31
2019-04-20T10:40:58.464Z,17.54
2019-04-20T10:43:55.064Z,19.72
2019-04-20T10:46:59.089Z,18.39
2019-04-20T10:50:03.198Z,18.33
2019-04-20T10:53:07.922Z,19.80
2019-04-20T10:56:11.794Z,20.65
2019-04-20T10:59:15.979Z,18.73
2019-04-20T11:02:21.528Z,17.80
2019-04-20T11:05:26.462Z,19.35
2019-04-20T11:08:30.679Z,19.40
2019-04-20T11:11:35.783Z,17.83
2019-04-20T11:14:43.479Z,18.86
2019-04-20T11:17:45.834Z,18.16
2019-04-20T11:20:51.106Z,17.12
2019-04-20T11:23:56.148Z,17.18
2019-04-20T11:27:00.416Z,16.46
2019-04-20T11:30:05.045Z,16.78
2019-04-20T11:33:09.951Z,17.43
2019-04-20T11:36:14.967Z,14.95
2019-04-20T11:39:18.857Z,14.27
2019-04-20T11:42:23.619Z,13.82
2019-04-20T11:45:28.741Z,14.74
2019-04-20T11:48:33.792Z,12.61
2019-04-20T11:51:37.823Z,13.36
2019-04-20T11:54:42.192Z,12.06
2019-04-20T11:57:47.196Z,13.30
2019-04-20T12:01:02.747Z,13.85
2019-04-20T12:04:02.839Z,13.75
2019-04-20T12:07:04.752Z,14.82
2019-04-20T12:10:14.878Z,13.83
2019-04-20T12:13:14.805Z,13.92
2019-04-20T12:16:19.380Z,13.30
2019-04-20T12:19:24.615Z,14.62
2019-04-20T12:22:28.821Z,12.99
2019-04-20T12:25:35.889Z,12.83
2019-04-20T12:28:38.201Z,12.04
2019-04-20T12:31:46.340Z,11.93
2019-04-20T12:34:47.670Z,13.46
2019-04-20T12:37:51.773Z,12.41
2019-04-20T12:40:55.736Z,11.66
2019-04-20T12:43:59.640Z,11.17
2019-04-20T12:47:03.706Z,10.76
2019-04-20T12:50:10.200Z,10.85
2019-04-20T12:53:14.814Z,10.41
2019-04-20T12:56:18.672Z,11.71
2019-04-20T12:59:23.491Z,11.33
2019-04-20T13:02:27.753Z,11.05
2019-04-20T13:05:31.874Z,11.80
2019-04-20T13:08:41.553Z,11.63
2019-04-20T13:11:56.821Z,10.62
2019-04-20T13:15:32.063Z,10.31
2019-04-20T13:18:43.438Z,11.25
2019-04-20T13:21:47.302Z,11.25
2019-04-20T13:24:51.088Z,10.05
2019-04-20T13:27:54.858Z,12.68
2019-04-20T13:30:59.762Z,10.01
2019-04-20T13:34:03.808Z,11.52
2019-04-20T13:37:08.445Z,9.83
2019-04-20T13:40:12.910Z,11.58
2019-04-20T13:43:17.618Z,10.72
2019-04-20T13:46:22.804Z,12.67
2019-04-20T13:49:27.119Z,12.30
2019-04-20T13:52:31.009Z,11.75
2019-04-20T13:55:35.941Z,11.42
2019-04-20T13:58:56.885Z,13.76
2019-04-20T14:02:17.831Z,13.14
2019-04-20T14:05:32.807Z,12.88
2019-04-20T14:08:37.493Z,14.54
2019-04-20T14:11:41.429Z,15.08
2019-04-20T14:14:46.823Z,16.15
2019-04-20T14:17:51.290Z,15.43
2019-04-20T14:20:56.302Z,14.89
2019-04-20T14:24:01.326Z,16.49
2019-04-20T14:27:06.477Z,16.04
2019-04-20T14:30:11.108Z,17.11
2019-04-20T14:33:14.827Z,16.79
2019-04-20T14:36:19.094Z,17.27
2019-04-20T14:39:22.899Z,18.32
2019-04-20T14:42:35.455Z,19.94
2019-04-20T14:45:32.404Z,20.23
2019-04-20T14:48:36.620Z,19.92
2019-04-20T14:51:41.574Z,20.76
2019-04-20T14:54:45.665Z,20.73
2019-04-20T14:57:49.795Z,21.09
2019-04-20T15:00:58.584Z,22.64
2019-04-20T15:04:06.758Z,21.53
2019-04-20T15:07:08.765Z,21.00
2019-04-20T15:10:13.061Z,22.02
2019-04-20T15:13:17.069Z,22.17
2019-04-20T15:16:22.480Z,21.74
2019-04-20T15:19:31.731Z,21.14
2019-04-20T15:22:39.241Z,21.95
2019-04-20T15:25:44.383Z,22.70
2019-04-20T15:28:48.613Z,22.79
2019-04-20T15:31:54.205Z,23.36
2019-04-20T15:34:58.649Z,23.31
2019-04-20T15:38:02.928Z,24.16
2019-04-20T15:41:08.781Z,24.19
2019-04-20T15:44:13.243Z,24.09
2019-04-20T15:47:17.503Z,23.25
2019-04-20T15:50:22.168Z,23.38
2019-04-20T15:53:26.339Z,24.00
2019-04-20T15:56:30.306Z,24.28
2019-04-20T15:59:34.750Z,24.62
2019-04-20T16:02:57.133Z,25.09
2019-04-20T16:06:03.343Z,25.38
2019-04-20T16:09:08.501Z,25.50
2019-04-20T16:12:13.025Z,24.81
2019-04-20T16:15:17.893Z,25.23
2019-04-20T16:18:23.018Z,26.14
2019-04-20T16:21:30.218Z,24.86
2019-04-20T16:24:37.512Z,25.17
2019-04-20T16:27:41.613Z,25.29
2019-04-20T16:30:45.751Z,26.03
2019-04-20T16:33:50.560Z,26.45
2019-04-20T16:36:56.932Z,26.96
2019-04-20T16:40:02.793Z,27.15
2019-04-20T16:43:17.979Z,26.79
2019-04-20T16:46:13.063Z,27.28
2019-04-20T16:49:17.019Z,27.77
2019-04-20T16:52:21.184Z,27.76
2019-04-20T16:55:25.200Z,28.15
2019-04-20T16:58:29.236Z,27.90
2019-04-20T17:01:33.364Z,28.41
2019-04-20T17:04:37.505Z,28.90
2019-04-20T17:07:44.761Z,30.51
2019-04-20T17:10:48.917Z,29.48
2019-04-20T17:13:55.363Z,29.69
2019-04-20T17:16:58.341Z,29.58
2019-04-20T17:20:03.881Z,29.78
2019-04-20T17:23:10.325Z,30.20
2019-04-20T17:26:16.857Z,30.74
2019-04-20T17:29:24.231Z,31.25
2019-04-20T17:32:29.564Z,31.18
2019-04-20T17:35:44.977Z,31.68
2019-04-20T17:38:44.567Z,31.98
2019-04-20T17:42:03.016Z,31.71
2019-04-20T17:45:00.711Z,33.59
2019-04-20T17:48:08.915Z,33.07
2019-04-20T17:51:23.427Z,34.47
2019-04-20T17:54:22.368Z,32.88
2019-04-20T17:57:26.167Z,32.17
2019-04-20T18:00:52.806Z,32.77
2019-04-20T18:04:22.586Z,33.47
2019-04-20T18:07:25.168Z,33.13
2019-04-20T18:10:26.099Z,33.71
2019-04-20T18:13:20.192Z,34.00
2019-04-20T18:16:45.452Z,32.82
2019-04-20T18:19:36.810Z,33.09
2019-04-20T18:22:44.149Z,34.93
2019-04-20T18:26:15.922Z,33.76
2019-04-20T18:29:10.678Z,33.59
2019-04-20T18:32:05.118Z,34.35
2019-04-20T18:35:14.013Z,34.52
2019-04-20T18:38:18.459Z,33.35
2019-04-20T18:41:31.428Z,33.40
2019-04-20T18:44:46.135Z,33.33
2019-04-20T18:47:55.165Z,35.32
2019-04-20T18:50:42.180Z,33.64
2019-04-20T18:53:48.194Z,32.99
2019-04-20T18:56:52.995Z,32.90
2019-04-20T18:59:57.196Z,33.28
2019-04-20T19:03:09.605Z,33.15
2019-04-20T19:06:09.044Z,33.19
2019-04-20T19:09:16.798Z,34.20
2019-04-20T19:12:21.682Z,33.70
2019-04-20T19:16:00.262Z,35.08
2019-04-20T19:19:09.919Z,36.49
2019-04-20T19:22:06.065Z,35.16
2019-04-20T19:25:18.487Z,35.20
2019-04-20T19:28:21.613Z,37.04
2019-04-20T19:31:41.506Z,34.82
2019-04-20T19:34:44.610Z,35.36
2019-04-20T19:37:40.737Z,36.95
2019-04-20T19:40:47.939Z,36.27
2019-04-20T19:43:56.403Z,35.56
2019-04-20T19:47:11.046Z,36.22
2019-04-20T19:50:25.248Z,36.54
2019-04-20T19:53:26.362Z,37.89
2019-04-20T19:56:26.394Z,37.44
2019-04-20T19:59:23.365Z,36.73
2019-04-20T20:02:19.147Z,37.70
2019-04-20T20:05:31.452Z,36.94
2019-04-20T20:08:31.576Z,38.73
2019-04-20T20:11:39.180Z,39.06
2019-04-20T20:14:44.796Z,39.06
2019-04-20T20:18:05.792Z,40.50
2019-04-20T20:21:08.522Z,40.04
2019-04-20T20:23:57.412Z,39.76
2019-04-20T20:27:06.176Z,41.18
2019-04-20T20:30:15.065Z,40.29
2019-04-20T20:33:28.018Z,40.97
2019-04-20T20:36:21.719Z,41.59
2019-04-20T20:39:29.384Z,41.47
2019-04-20T20:42:45.764Z,41.53
2019-04-20T20:45:42.346Z,41.40
2019-04-20T20:49:04.922Z,41.54
2019-04-20T20:52:06.732Z,41.36
2019-04-20T20:55:03.674Z,41.62
2019-04-20T20:58:09.777Z,42.87
2019-04-20T21:01:14.373Z,41.69
2019-04-20T21:04:10.071Z,42.41
2019-04-20T21:07:13.800Z,42.08
2019-04-20T21:10:25.852Z,43.28
2019-04-20T21:13:28.361Z,43.18
2019-04-20T21:16:32.921Z,43.08
2019-04-20T21:19:53.357Z,43.21
2019-04-20T21:22:54.873Z,43.69
2019-04-20T21:26:04.790Z,43.81
2019-04-20T21:29:10.149Z,45.18
2019-04-20T21:32:17.959Z,44.77
2019-04-20T21:35:21.744Z,45.48
2019-04-20T21:38:31.379Z,46.60
2019-04-20T21:41:31.457Z,46.47
2019-04-20T21:44:40.745Z,47.23
2019-04-20T21:47:43.584Z,47.40
2019-04-20T21:51:01.627Z,47.26
2019-04-20T21:53:56.432Z,47.75
2019-04-20T21:57:03.120Z,48.69
2019-04-20T22:00:15.105Z,49.90
2019-04-20T22:03:14.655Z,49.58
2019-04-20T22:06:18.348Z,50.39
2019-04-20T22:09:25.089Z,50.78
2019-04-20T22:12:37.595Z,52.02
2019-04-20T22:15:35.365Z,52.97
2019-04-20T22:18:49.524Z,52.16
2019-04-20T22:22:00.050Z,53.33
2019-04-20T22:25:02.701Z,53.50
2019-04-20T22:27:58.515Z,53.26
2019-04-20T22:31:02.191Z,54.40
2019-04-20T22:34:09.010Z,53.59
2019-04-20T22:37:17.921Z,54.19
2019-04-20T22:40:21.951Z,55.14
2019-04-20T22:43:26.151Z,55.28
2019-04-20T22:46:31.807Z,56.45
2019-04-20T22:49:48.188Z,55.81
2019-04-20T22:52:50.431Z,57.00
2019-04-20T22:56:11.100Z,56.59
2019-04-20T22:59:01.071Z,57.49
2019-04-20T23:02:00.345Z,57.56
2019-04-20T23:05:02.841Z,57.40
2019-04-20T23:08:06.812Z,57.88
2019-04-20T23:11:17.965Z,57.90
2019-04-20T23:14:18.269Z,58.97
2019-04-20T23:17:26.988Z,59.11
2019-04-20T23:20:32.565Z,59.26
2019-04-20T23:23:33.870Z,60.14
2019-04-20T23:26:42.230Z,60.38
2019-04-20T23:29:45.188Z,60.26
2019-04-20T23:32:49.739Z,59.21
2019-04-20T23:35:56.582Z,60.51
2019-04-20T23:39:02.613Z,61.21
2019-04-20T23:42:08.532Z,61.45
2019-04-20T23:45:26.985Z,61.10
2019-04-20T23:48:35.981Z,62.13
2019-04-20T23:51:59.244Z,62.37
2019-04-20T23:54:51.329Z,62.38
2019-04-20T23:57:56.789Z,62.72
